Airfield :
LOGIN :

Register | Disclaimer

   EN    FR    IT 

 










Legend :    VFR   Marginal VFR   IFR   Intensive IFR   Very Intensive IFR
Visi :
Ceiling :
>= 8 km
>= 3000ft
5 to 8 km
1000 to 3000 ft
1500m to 5 km
500 to 1000 ft
800 to 1500m
200 to 500 ft
< 800m
< 200 ft
Symbols :   Thunderstorms  Fog  Heavy snow  Heavy precipitations  Wind > 20 kt
SIGMETs :     Misc.  Thunderstorms  Icing  Turbulence  Mountain Waves  Volcanic Ashes






- Airport Elevation : 978 ft
- IATA code : LNZ


LOWL - Linz

CURRENT METAR :
  • 030750Z AUTO 05003KT 360V150 CAVOK 21/14 Q1021 NOSIG

EXPIRED METARs :
  • 030720Z AUTO 11004KT 070V170 CAVOK 20/13 Q1021 NOSIG
  • 030650Z AUTO VRB03KT 9999 FEW070 20/13 Q1021 NOSIG
  • 030620Z AUTO 11004KT 080V140 9999 FEW070 18/13 Q1021 NOSIG
  • 030550Z AUTO VRB02KT 9999 FEW070 19/14 Q1021 NOSIG
  • 030520Z AUTO VRB01KT 9999 FEW070 18/13 Q1021 NOSIG

TAF TAF LOWL
Valid from the 03 at 06:00 until the 04 at 06:00 UTC


030515Z 0306/0406 VRB03KT CAVOK TX30/0315Z TN17/0403Z
BECMG 0310/0312 27008KT
BECMG 0316/0318 VRB03KT
BECMG 0405/0406 29010KT
TEMPO 0405/0406 29015G25KT SHRA FEW060CB



MET'MAP, your aeronautical weather chart ! - Copyright ORBIFLY December 2007 - Disclaimer

ORBIFLY MET'MAP TEAM :

Programming & Development : Alexandra Zaïnal
Original concept : Baudouin d'Aumeries
Technical & hardware support : Manuel Goepfert
Assistance : Marc-Olivier Méhu




SOURCES & CREDITS :

   NOAA